createdAt,value
2022-09-23T00:01:02.005Z,96437.59
2022-09-23T00:03:31.090Z,96428.72
2022-09-23T00:06:02.731Z,96437.25
2022-09-23T00:08:30.388Z,96429.97
2022-09-23T00:10:57.312Z,96427.66
2022-09-23T00:13:27.342Z,96425.72
2022-09-23T00:15:53.650Z,96419.47
2022-09-23T00:18:20.731Z,96423.09
2022-09-23T00:20:48.228Z,96421.06
2022-09-23T00:23:14.728Z,96421.44
2022-09-23T00:25:41.036Z,96427.97
2022-09-23T00:28:07.968Z,96416.66
2022-09-23T00:30:34.363Z,96422.56
2022-09-23T00:33:00.787Z,96428.28
2022-09-23T00:35:27.579Z,96417.44
2022-09-23T00:37:53.926Z,96412.00
2022-09-23T00:40:20.773Z,96413.47
2022-09-23T00:42:50.194Z,96420.97
2022-09-23T00:45:17.029Z,96422.59
2022-09-23T00:48:01.753Z,96415.53
2022-09-23T00:50:43.893Z,96421.34
2022-09-23T00:53:19.635Z,96423.19
2022-09-23T00:55:53.312Z,96416.25
2022-09-23T00:58:23.941Z,96419.63
2022-09-23T01:00:50.491Z,96410.47
2022-09-23T01:03:19.443Z,96411.81
2022-09-23T01:05:46.873Z,96410.38
2022-09-23T01:08:14.891Z,96406.47
2022-09-23T01:11:02.360Z,96400.06
2022-09-23T01:13:47.388Z,96406.06
2022-09-23T01:16:16.824Z,96391.28
2022-09-23T01:19:08.828Z,96392.25
2022-09-23T01:21:44.847Z,96389.59
2022-09-23T01:24:29.864Z,96394.16
2022-09-23T01:27:08.472Z,96394.25
2022-09-23T01:30:06.002Z,96394.53
2022-09-23T01:32:43.661Z,96394.16
2022-09-23T01:35:25.570Z,96385.94
2022-09-23T01:38:03.444Z,96388.34
2022-09-23T01:40:45.775Z,96390.78
2022-09-23T01:43:21.679Z,96391.16
2022-09-23T01:45:53.536Z,96380.84
2022-09-23T01:48:35.805Z,96386.31
2022-09-23T01:51:12.068Z,96378.78
2022-09-23T01:53:53.334Z,96374.00
2022-09-23T01:56:29.250Z,96383.44
2022-09-23T01:58:55.524Z,96366.69
2022-09-23T02:01:30.981Z,96378.56
2022-09-23T02:04:05.884Z,96363.78
2022-09-23T02:06:42.220Z,96365.19
2022-09-23T02:09:14.302Z,96370.97
2022-09-23T02:11:45.499Z,96371.09
2022-09-23T02:14:19.245Z,96369.09
2022-09-23T02:16:51.365Z,96377.78
2022-09-23T02:19:50.399Z,96372.22
2022-09-23T02:22:46.961Z,96372.22
2022-09-23T02:25:13.387Z,96372.84
2022-09-23T02:27:49.031Z,96372.16
2022-09-23T02:30:20.020Z,96368.06
2022-09-23T02:32:55.014Z,96363.28
2022-09-23T02:35:32.751Z,96370.59
2022-09-23T02:38:02.941Z,96369.19
2022-09-23T02:40:51.383Z,96366.13
2022-09-23T02:43:43.842Z,96372.03
2022-09-23T02:46:10.745Z,96357.59
2022-09-23T02:48:53.733Z,96367.25
2022-09-23T02:51:20.560Z,96371.63
2022-09-23T02:53:47.712Z,96368.06
2022-09-23T02:56:20.096Z,96365.34
2022-09-23T02:58:52.255Z,96362.91
2022-09-23T03:01:45.108Z,96364.03
2022-09-23T03:04:26.816Z,96348.72
2022-09-23T03:07:01.312Z,96350.00
2022-09-23T03:09:45.825Z,96360.44
2022-09-23T03:12:36.414Z,96359.63
2022-09-23T03:15:27.816Z,96351.41
2022-09-23T03:18:08.163Z,96345.78
2022-09-23T03:20:45.062Z,96352.06
2022-09-23T03:23:15.436Z,96340.94
2022-09-23T03:25:45.729Z,96342.56
2022-09-23T03:28:14.908Z,96339.16
2022-09-23T03:30:43.815Z,96343.72
2022-09-23T03:33:15.415Z,96346.78
2022-09-23T03:36:09.223Z,96345.06
2022-09-23T03:38:39.932Z,96348.78
2022-09-23T03:41:11.611Z,96338.09
2022-09-23T03:43:39.484Z,96343.84
2022-09-23T03:46:08.112Z,96339.22
2022-09-23T03:48:35.079Z,96347.19
2022-09-23T03:51:22.030Z,96336.72
2022-09-23T03:53:49.314Z,96339.50
2022-09-23T03:56:16.096Z,96334.28
2022-09-23T03:58:43.927Z,96331.81
2022-09-23T04:01:10.946Z,96330.38
2022-09-23T04:03:37.300Z,96334.94
2022-09-23T04:06:03.792Z,96324.88
2022-09-23T04:08:30.526Z,96331.22
2022-09-23T04:11:01.508Z,96329.81
2022-09-23T04:13:29.296Z,96329.66
2022-09-23T04:15:56.246Z,96326.81
2022-09-23T04:18:23.511Z,96322.25
2022-09-23T04:20:50.006Z,96326.00
2022-09-23T04:23:16.876Z,96330.38
2022-09-23T04:25:49.747Z,96325.75
2022-09-23T04:28:16.229Z,96324.78
2022-09-23T04:30:43.704Z,96324.09
2022-09-23T04:33:11.690Z,96323.72
2022-09-23T04:35:40.285Z,96331.31
2022-09-23T04:38:07.273Z,96338.50
2022-09-23T04:40:35.790Z,96329.03
2022-09-23T04:43:02.208Z,96330.25
2022-09-23T04:45:30.622Z,96326.19
2022-09-23T04:47:58.304Z,96320.69
2022-09-23T04:50:26.069Z,96321.53
2022-09-23T04:52:54.094Z,96317.34
2022-09-23T04:55:21.769Z,96325.03
2022-09-23T04:57:48.336Z,96328.47
2022-09-23T05:00:18.168Z,96325.75
2022-09-23T05:02:46.271Z,96334.00
2022-09-23T05:05:13.734Z,96331.75
2022-09-23T05:07:40.694Z,96331.19
2022-09-23T05:10:07.707Z,96333.41
2022-09-23T05:12:34.083Z,96331.25
2022-09-23T05:15:00.809Z,96333.38
2022-09-23T05:17:31.303Z,96330.38
2022-09-23T05:19:59.261Z,96332.31
2022-09-23T05:22:26.617Z,96334.38
2022-09-23T05:24:53.982Z,96332.84
2022-09-23T05:27:21.600Z,96325.41
2022-09-23T05:29:49.186Z,96327.50
2022-09-23T05:32:15.648Z,96328.00
2022-09-23T05:34:42.295Z,96331.28
2022-09-23T05:37:08.768Z,96333.94
2022-09-23T05:39:35.229Z,96327.94
2022-09-23T05:42:02.049Z,96332.56
2022-09-23T05:44:29.143Z,96332.50
2022-09-23T05:46:55.568Z,96341.22
2022-09-23T05:49:33.066Z,96340.66
2022-09-23T05:52:08.566Z,96331.38
2022-09-23T05:54:35.776Z,96329.28
2022-09-23T05:57:05.016Z,96334.81
2022-09-23T05:59:32.068Z,96341.59
2022-09-23T06:01:58.998Z,96332.50
2022-09-23T06:04:26.241Z,96324.22
2022-09-23T06:06:53.600Z,96330.38
2022-09-23T06:09:19.970Z,96331.31
2022-09-23T06:11:46.709Z,96338.59
2022-09-23T06:14:15.026Z,96337.38
2022-09-23T06:16:41.475Z,96340.91
2022-09-23T06:19:07.795Z,96340.84
2022-09-23T06:21:37.594Z,96343.25
2022-09-23T06:24:05.102Z,96335.00
2022-09-23T06:26:34.568Z,96341.97
2022-09-23T06:29:05.275Z,96332.94
2022-09-23T06:31:31.933Z,96331.22
2022-09-23T06:34:10.040Z,96325.13
2022-09-23T06:36:45.524Z,96321.50
2022-09-23T06:39:14.337Z,96314.09
2022-09-23T06:41:41.006Z,96323.75
2022-09-23T06:44:08.081Z,96322.81
2022-09-23T06:46:36.769Z,96317.13
2022-09-23T06:49:03.697Z,96324.28
2022-09-23T06:51:30.448Z,96331.19
2022-09-23T06:53:56.777Z,96331.69
2022-09-23T06:56:23.629Z,96325.78
2022-09-23T06:58:52.606Z,96333.53
2022-09-23T07:01:19.734Z,96336.41
2022-09-23T07:03:50.461Z,96325.06
2022-09-23T07:06:17.338Z,96324.34
2022-09-23T07:08:46.791Z,96331.78
2022-09-23T07:11:14.439Z,96330.72
2022-09-23T07:13:42.315Z,96321.75
2022-09-23T07:16:09.923Z,96322.63
2022-09-23T07:18:37.553Z,96317.47
2022-09-23T07:21:10.013Z,96319.06
2022-09-23T07:23:38.164Z,96322.47
2022-09-23T07:26:05.159Z,96320.34
2022-09-23T07:28:32.140Z,96322.66
2022-09-23T07:31:04.004Z,96320.91
2022-09-23T07:33:33.094Z,96330.06
2022-09-23T07:36:07.755Z,96330.22
2022-09-23T07:38:34.911Z,96325.09
2022-09-23T07:41:04.469Z,96331.28
2022-09-23T07:43:34.160Z,96338.16
2022-09-23T07:46:13.199Z,96333.78
2022-09-23T07:48:39.944Z,96330.88
2022-09-23T07:51:21.533Z,96333.31
2022-09-23T07:53:49.746Z,96329.38
2022-09-23T07:56:19.318Z,96333.19
2022-09-23T07:59:01.682Z,96331.22
2022-09-23T08:01:31.932Z,96327.38
2022-09-23T08:04:00.540Z,96339.56
2022-09-23T08:06:26.855Z,96329.00
2022-09-23T08:08:53.675Z,96324.81
2022-09-23T08:11:20.544Z,96318.59
2022-09-23T08:13:48.415Z,96323.34
2022-09-23T08:16:14.820Z,96325.56
2022-09-23T08:18:45.034Z,96329.53
2022-09-23T08:21:11.856Z,96326.00
2022-09-23T08:23:38.503Z,96325.69
2022-09-23T08:26:09.859Z,96330.84
2022-09-23T08:28:38.883Z,96326.16
2022-09-23T08:31:05.378Z,96321.78
2022-09-23T08:33:31.910Z,96332.19
2022-09-23T08:36:01.819Z,96321.00
2022-09-23T08:38:29.090Z,96322.53
2022-09-23T08:41:16.269Z,96316.16
2022-09-23T08:43:48.533Z,96324.53
2022-09-23T08:46:22.197Z,96318.13
2022-09-23T08:48:49.796Z,96313.81
2022-09-23T08:51:25.747Z,96309.56
2022-09-23T08:53:52.326Z,96312.09
2022-09-23T08:56:23.610Z,96319.06
2022-09-23T08:59:09.739Z,96313.56
2022-09-23T09:01:47.959Z,96304.66
2022-09-23T09:04:16.312Z,96313.22
2022-09-23T09:06:53.637Z,96322.97
2022-09-23T09:09:36.815Z,96308.59
2022-09-23T09:12:13.831Z,96312.72
2022-09-23T09:15:14.760Z,96301.13
2022-09-23T09:18:18.098Z,96298.56
2022-09-23T09:21:13.699Z,96293.19
2022-09-23T09:23:46.868Z,96288.06
2022-09-23T09:26:21.558Z,96290.66
2022-09-23T09:29:23.391Z,96285.63
2022-09-23T09:31:50.877Z,96287.25
2022-09-23T09:34:41.429Z,96284.00
2022-09-23T09:37:33.976Z,96290.78
2022-09-23T09:40:00.719Z,96297.38
2022-09-23T09:42:40.858Z,96286.31
2022-09-23T09:45:45.224Z,96284.16
2022-09-23T09:48:17.562Z,96277.53
2022-09-23T09:50:50.740Z,96280.66
2022-09-23T09:53:22.254Z,96271.84
2022-09-23T09:56:05.603Z,96271.41
2022-09-23T09:58:51.462Z,96275.19
2022-09-23T10:01:29.984Z,96260.94
2022-09-23T10:03:59.561Z,96257.16
2022-09-23T10:06:35.125Z,96263.88
2022-09-23T10:09:04.395Z,96251.75
2022-09-23T10:11:32.246Z,96263.59
2022-09-23T10:14:13.705Z,96261.72
2022-09-23T10:16:41.659Z,96250.25
2022-09-23T10:19:17.121Z,96252.75
2022-09-23T10:21:43.811Z,96255.47
2022-09-23T10:24:22.871Z,96241.84
2022-09-23T10:27:08.496Z,96238.66
2022-09-23T10:29:40.920Z,96243.25
2022-09-23T10:32:36.318Z,96242.53
2022-09-23T10:35:14.947Z,96249.44
2022-09-23T10:37:44.920Z,96248.50
2022-09-23T10:40:48.332Z,96244.25
2022-09-23T10:44:02.289Z,96242.47
2022-09-23T10:46:41.754Z,96234.22
2022-09-23T10:49:39.175Z,96235.34
2022-09-23T10:52:26.271Z,96229.44
2022-09-23T10:55:07.603Z,96226.41
2022-09-23T10:57:46.341Z,96230.88
2022-09-23T11:00:38.115Z,96222.00
2022-09-23T11:03:34.729Z,96216.50
2022-09-23T11:06:29.086Z,96216.59
2022-09-23T11:09:04.526Z,96210.50
2022-09-23T11:11:40.554Z,96207.56
2022-09-23T11:14:19.650Z,96210.81
2022-09-23T11:16:55.363Z,96209.19
2022-09-23T11:19:54.042Z,96206.72
2022-09-23T11:22:53.565Z,96201.94
2022-09-23T11:25:37.296Z,96202.31
2022-09-23T11:28:30.324Z,96200.03
2022-09-23T11:31:06.309Z,96195.31
2022-09-23T11:33:49.511Z,96198.03
2022-09-23T11:36:26.703Z,96186.63
2022-09-23T11:38:56.572Z,96184.94
2022-09-23T11:41:29.762Z,96185.63
2022-09-23T11:44:20.391Z,96184.81
2022-09-23T11:46:54.778Z,96188.25
2022-09-23T11:49:55.156Z,96171.72
2022-09-23T11:52:28.034Z,96177.75
2022-09-23T11:55:08.122Z,96168.47
2022-09-23T11:57:54.352Z,96163.81
2022-09-23T12:00:21.936Z,96162.38
2022-09-23T12:03:13.606Z,96156.16
2022-09-23T12:05:45.747Z,96148.66
2022-09-23T12:08:23.603Z,96152.19
2022-09-23T12:11:03.628Z,96149.66
2022-09-23T12:13:38.822Z,96149.03
2022-09-23T12:16:05.202Z,96142.28
2022-09-23T12:18:56.303Z,96136.69
2022-09-23T12:21:51.543Z,96130.09
2022-09-23T12:24:27.464Z,96125.16
2022-09-23T12:27:00.450Z,96119.53
2022-09-23T12:29:32.313Z,96123.72
2022-09-23T12:31:59.408Z,96116.03
2022-09-23T12:34:44.423Z,96113.41
2022-09-23T12:37:10.746Z,96107.81
2022-09-23T12:39:38.677Z,96108.56
2022-09-23T12:42:14.630Z,96102.22
2022-09-23T12:44:47.191Z,96109.97
2022-09-23T12:47:25.792Z,96100.84
2022-09-23T12:50:01.070Z,96097.59
2022-09-23T12:52:31.776Z,96102.84
2022-09-23T12:55:26.751Z,96097.53
2022-09-23T12:57:53.117Z,96099.53
2022-09-23T13:00:25.893Z,96097.81
2022-09-23T13:03:15.839Z,96097.06
2022-09-23T13:06:06.146Z,96096.22
2022-09-23T13:08:37.327Z,96090.00
2022-09-23T13:11:08.398Z,96085.22
2022-09-23T13:13:41.453Z,96087.41
2022-09-23T13:16:20.418Z,96090.03
2022-09-23T13:18:54.736Z,96090.63
2022-09-23T13:21:40.146Z,96084.59
2022-09-23T13:24:12.859Z,96082.56
2022-09-23T13:26:45.780Z,96083.97
2022-09-23T13:29:30.168Z,96071.41
2022-09-23T13:31:58.200Z,96073.56
2022-09-23T13:34:30.406Z,96066.66
2022-09-23T13:36:56.728Z,96061.41
2022-09-23T13:39:27.918Z,96069.91
2022-09-23T13:42:00.940Z,96058.28
2022-09-23T13:44:28.930Z,96064.38
2022-09-23T13:46:59.666Z,96056.16
2022-09-23T13:49:35.227Z,96060.72
2022-09-23T13:52:03.724Z,96057.56
2022-09-23T13:54:33.330Z,96054.13
2022-09-23T13:57:00.612Z,96053.91
2022-09-23T13:59:29.379Z,96049.53
2022-09-23T14:02:28.952Z,96053.00
2022-09-23T14:04:58.811Z,96037.16
2022-09-23T14:07:26.106Z,96045.22
2022-09-23T14:09:55.427Z,96046.75
2022-09-23T14:12:22.640Z,96039.41
2022-09-23T14:14:51.729Z,96042.38
2022-09-23T14:17:23.132Z,96036.38
2022-09-23T14:19:50.622Z,96023.75
2022-09-23T14:22:26.530Z,96031.75
2022-09-23T14:24:54.409Z,96030.59
2022-09-23T14:27:28.962Z,96022.22
2022-09-23T14:29:56.334Z,96025.28
2022-09-23T14:32:26.751Z,96024.97
2022-09-23T14:35:05.934Z,96017.72
2022-09-23T14:37:59.453Z,96016.88
2022-09-23T14:40:51.063Z,96014.56
2022-09-23T14:43:23.510Z,96017.59
2022-09-23T14:45:56.431Z,96011.72
2022-09-23T14:48:24.447Z,96008.75
2022-09-23T14:50:57.252Z,96021.75
2022-09-23T14:53:43.324Z,96016.63
2022-09-23T14:56:16.160Z,96015.47
2022-09-23T14:58:55.359Z,96024.44
2022-09-23T15:01:30.846Z,96019.69
2022-09-23T15:04:13.504Z,96012.75
2022-09-23T15:06:46.743Z,96018.47
2022-09-23T15:09:20.869Z,96010.72
2022-09-23T15:11:47.402Z,96004.88
2022-09-23T15:14:36.801Z,95999.66
2022-09-23T15:17:04.090Z,95999.25
2022-09-23T15:19:31.485Z,96003.16
2022-09-23T15:21:58.212Z,95997.16
2022-09-23T15:24:44.748Z,95994.72
2022-09-23T15:27:25.551Z,95992.28
2022-09-23T15:29:53.296Z,95995.59
2022-09-23T15:32:21.521Z,95990.88
2022-09-23T15:34:51.223Z,95985.75
2022-09-23T15:37:18.120Z,95988.13
2022-09-23T15:39:45.167Z,95987.75
2022-09-23T15:42:11.758Z,95986.09
2022-09-23T15:44:38.199Z,95978.81
2022-09-23T15:47:05.260Z,95976.66
2022-09-23T15:49:33.787Z,95980.22
2022-09-23T15:52:01.192Z,95975.66
2022-09-23T15:54:28.954Z,95978.59
2022-09-23T15:56:56.612Z,95982.59
2022-09-23T15:59:24.026Z,95980.44
2022-09-23T16:01:52.373Z,95970.97
2022-09-23T16:04:19.000Z,95987.47
2022-09-23T16:06:47.949Z,95977.72
2022-09-23T16:09:16.132Z,95972.00
2022-09-23T16:11:48.298Z,95981.44
2022-09-23T16:14:17.569Z,95967.13
2022-09-23T16:16:45.234Z,95977.78
2022-09-23T16:19:12.752Z,95968.69
2022-09-23T16:21:40.827Z,95967.00
2022-09-23T16:24:18.845Z,95976.25
2022-09-23T16:26:47.809Z,95977.56
2022-09-23T16:29:14.617Z,95973.75
2022-09-23T16:31:41.315Z,95975.94
2022-09-23T16:34:08.315Z,95975.88
2022-09-23T16:36:40.961Z,95974.13
2022-09-23T16:39:10.788Z,95975.44
2022-09-23T16:41:37.741Z,95971.59
2022-09-23T16:44:07.304Z,95979.59
2022-09-23T16:46:34.753Z,95982.81
2022-09-23T16:49:01.809Z,95979.19
2022-09-23T16:51:31.566Z,95988.06
2022-09-23T16:53:59.328Z,95984.81
2022-09-23T16:56:29.102Z,95990.75
2022-09-23T16:58:56.624Z,95984.75
2022-09-23T17:01:44.220Z,95982.13
2022-09-23T17:04:11.811Z,95982.44
2022-09-23T17:06:52.253Z,95981.50
2022-09-23T17:09:24.723Z,95990.13
2022-09-23T17:11:58.631Z,95986.66
2022-09-23T17:14:25.122Z,95988.88
2022-09-23T17:16:51.439Z,95980.31
2022-09-23T17:19:18.280Z,95988.78
2022-09-23T17:21:44.646Z,95981.47
2022-09-23T17:24:11.400Z,95977.06
2022-09-23T17:26:38.523Z,95976.09
2022-09-23T17:29:05.512Z,95982.09
2022-09-23T17:31:31.948Z,95982.88
2022-09-23T17:33:58.955Z,95976.88
2022-09-23T17:36:25.288Z,95970.63
2022-09-23T17:38:53.365Z,95968.91
2022-09-23T17:41:21.161Z,95973.03
2022-09-23T17:43:47.653Z,95978.06
2022-09-23T17:46:17.941Z,95968.78
2022-09-23T17:48:45.731Z,95962.72
2022-09-23T17:51:16.003Z,95964.59
2022-09-23T17:53:45.239Z,95976.41
2022-09-23T17:56:15.776Z,95982.41
2022-09-23T17:58:42.980Z,95985.94
2022-09-23T18:01:15.426Z,95989.94
2022-09-23T18:03:45.510Z,95986.25
2022-09-23T18:06:14.407Z,95989.06
2022-09-23T18:08:42.482Z,95984.13
2022-09-23T18:11:23.670Z,95983.47
2022-09-23T18:13:55.138Z,95979.84
2022-09-23T18:16:26.036Z,95982.72
2022-09-23T18:19:00.954Z,95972.81
2022-09-23T18:21:31.237Z,95987.16
2022-09-23T18:24:15.695Z,95983.59
2022-09-23T18:26:46.065Z,95981.22
2022-09-23T18:29:12.546Z,95976.44
2022-09-23T18:31:39.254Z,95974.91
2022-09-23T18:34:08.200Z,95981.38
2022-09-23T18:36:34.853Z,95980.81
2022-09-23T18:39:01.425Z,95987.09
2022-09-23T18:41:28.307Z,95980.56
2022-09-23T18:43:54.851Z,95992.00
2022-09-23T18:46:26.964Z,95988.19
2022-09-23T18:49:11.917Z,95990.69
2022-09-23T18:51:57.038Z,95984.84
2022-09-23T18:54:24.032Z,95990.16
2022-09-23T18:56:53.408Z,95992.59
2022-09-23T18:59:23.714Z,95987.19
2022-09-23T19:01:50.640Z,95991.25
2022-09-23T19:04:19.650Z,95992.44
2022-09-23T19:06:46.495Z,95999.50
2022-09-23T19:09:15.671Z,95992.06
2022-09-23T19:11:42.832Z,95980.31
2022-09-23T19:14:11.408Z,95974.53
2022-09-23T19:16:39.731Z,95972.38
2022-09-23T19:19:06.560Z,95978.34
2022-09-23T19:21:33.339Z,95984.34
2022-09-23T19:24:05.643Z,95983.97
2022-09-23T19:26:35.958Z,95993.72
2022-09-23T19:29:04.202Z,95996.19
2022-09-23T19:31:34.116Z,95999.13
2022-09-23T19:34:04.365Z,95989.34
2022-09-23T19:36:34.056Z,95991.25
2022-09-23T19:39:02.859Z,95997.53
2022-09-23T19:41:35.283Z,95984.06
2022-09-23T19:44:03.210Z,95986.97
2022-09-23T19:46:31.051Z,95980.88
2022-09-23T19:48:58.312Z,95984.56
2022-09-23T19:51:24.679Z,95975.22
2022-09-23T19:53:51.692Z,95974.72
2022-09-23T19:56:18.267Z,95967.25
2022-09-23T19:58:54.629Z,95966.44
2022-09-23T20:01:29.217Z,95972.16
2022-09-23T20:03:56.318Z,95978.28
2022-09-23T20:06:23.194Z,95976.44
2022-09-23T20:08:49.940Z,95974.47
2022-09-23T20:11:26.190Z,95974.31
2022-09-23T20:14:01.659Z,95965.72
2022-09-23T20:16:31.959Z,95960.00
2022-09-23T20:18:59.840Z,95963.09
2022-09-23T20:21:28.081Z,95963.09
2022-09-23T20:23:54.408Z,95970.88
2022-09-23T20:26:39.606Z,95964.53
2022-09-23T20:29:05.892Z,95971.69
2022-09-23T20:31:34.309Z,95964.78
2022-09-23T20:34:05.872Z,95964.72
2022-09-23T20:36:33.036Z,95962.84
2022-09-23T20:39:01.544Z,95953.72
2022-09-23T20:41:30.535Z,95950.09
2022-09-23T20:43:59.339Z,95950.88
2022-09-23T20:46:26.611Z,95938.22
2022-09-23T20:48:54.448Z,95938.72
2022-09-23T20:51:20.950Z,95943.00
2022-09-23T20:53:52.605Z,95945.63
2022-09-23T20:56:23.610Z,95940.91
2022-09-23T20:58:52.048Z,95942.13
2022-09-23T21:01:19.256Z,95938.28
2022-09-23T21:03:49.015Z,95930.06
2022-09-23T21:06:17.230Z,95932.09
2022-09-23T21:08:44.520Z,95918.81
2022-09-23T21:11:16.818Z,95924.34
2022-09-23T21:13:48.203Z,95922.97
2022-09-23T21:16:17.351Z,95917.66
2022-09-23T21:18:44.990Z,95930.44
2022-09-23T21:21:13.946Z,95918.59
2022-09-23T21:23:42.266Z,95927.19
2022-09-23T21:26:15.201Z,95930.69
2022-09-23T21:28:43.262Z,95919.69
2022-09-23T21:31:23.083Z,95912.56
2022-09-23T21:33:56.686Z,95923.22
2022-09-23T21:36:24.979Z,95923.41
2022-09-23T21:38:52.322Z,95926.41
2022-09-23T21:41:19.306Z,95917.81
2022-09-23T21:43:46.146Z,95926.97
2022-09-23T21:46:14.761Z,95918.22
2022-09-23T21:48:42.439Z,95931.09
2022-09-23T21:51:14.548Z,95929.91
2022-09-23T21:53:45.069Z,95928.47
2022-09-23T21:56:21.205Z,95916.94
2022-09-23T21:58:49.212Z,95918.63
2022-09-23T22:01:19.543Z,95923.72
2022-09-23T22:03:52.336Z,95923.09
2022-09-23T22:06:22.635Z,95924.91
2022-09-23T22:08:51.466Z,95926.13
2022-09-23T22:11:39.529Z,95925.53
2022-09-23T22:14:09.394Z,95932.88
2022-09-23T22:16:36.731Z,95918.63
2022-09-23T22:19:06.789Z,95924.53
2022-09-23T22:21:35.450Z,95927.56
2022-09-23T22:24:03.062Z,95925.31
2022-09-23T22:26:33.079Z,95925.72
2022-09-23T22:29:18.440Z,95927.34
2022-09-23T22:32:08.712Z,95916.94
2022-09-23T22:34:49.675Z,95910.69
2022-09-23T22:37:26.310Z,95906.81
2022-09-23T22:39:53.736Z,95916.59
2022-09-23T22:42:23.600Z,95923.72
2022-09-23T22:44:50.502Z,95930.06
2022-09-23T22:47:18.171Z,95931.88
2022-09-23T22:49:46.114Z,95926.97
2022-09-23T22:52:13.856Z,95925.16
2022-09-23T22:54:40.295Z,95913.09
2022-09-23T22:57:08.566Z,95908.66
2022-09-23T22:59:37.158Z,95906.41
2022-09-23T23:02:04.183Z,95902.75
2022-09-23T23:04:31.199Z,95908.47
2022-09-23T23:06:58.572Z,95908.06
2022-09-23T23:09:24.944Z,95917.03
2022-09-23T23:11:51.674Z,95914.38
2022-09-23T23:14:18.503Z,95904.56
2022-09-23T23:16:45.948Z,95904.16
2022-09-23T23:19:16.699Z,95905.81
2022-09-23T23:21:44.408Z,95900.31
2022-09-23T23:24:17.091Z,95896.59
2022-09-23T23:26:44.016Z,95899.47
2022-09-23T23:29:12.280Z,95897.25
2022-09-23T23:31:39.406Z,95910.50
2022-09-23T23:34:08.216Z,95904.41
2022-09-23T23:36:34.638Z,95907.41
2022-09-23T23:39:01.479Z,95897.44
2022-09-23T23:41:28.734Z,95889.31
2022-09-23T23:43:59.349Z,95900.09
2022-09-23T23:46:28.210Z,95902.97
2022-09-23T23:48:55.979Z,95896.25
2022-09-23T23:51:23.317Z,95893.41
2022-09-23T23:53:49.775Z,95899.94
2022-09-23T23:56:19.996Z,95894.25
2022-09-23T23:58:46.890Z,95890.19
